sensor_id;sensor_type;location;lat;lon;timestamp;pressure;altitude;pressure_sealevel;temperature;humidity
45793;BME280;31495;42.740;22.908;2023-08-08T00:00:55;92974.88;;;15.03;80.58
45793;BME280;31495;42.740;22.908;2023-08-08T00:01:54;92986.16;;;15.09;80.42
45793;BME280;31495;42.740;22.908;2023-08-08T00:02:54;93006.97;;;15.25;80.34
45793;BME280;31495;42.740;22.908;2023-08-08T00:03:54;92967.06;;;15.03;80.85
45793;BME280;31495;42.740;22.908;2023-08-08T00:04:53;93004.34;;;15.25;81.13
45793;BME280;31495;42.740;22.908;2023-08-08T00:05:52;93006.97;;;15.25;81.42
45793;BME280;31495;42.740;22.908;2023-08-08T00:06:52;93007.91;;;15.19;81.97
45793;BME280;31495;42.740;22.908;2023-08-08T00:07:51;92970.06;;;14.95;81.81
45793;BME280;31495;42.740;22.908;2023-08-08T00:08:51;92998.53;;;15.18;81.54
45793;BME280;31495;42.740;22.908;2023-08-08T00:09:50;93022.72;;;15.36;81.00
45793;BME280;31495;42.740;22.908;2023-08-08T00:10:50;93013.06;;;15.36;81.11
45793;BME280;31495;42.740;22.908;2023-08-08T00:11:49;93000.63;;;15.21;81.17
45793;BME280;31495;42.740;22.908;2023-08-08T00:12:49;92981.31;;;15.17;79.92
45793;BME280;31495;42.740;22.908;2023-08-08T00:13:49;93016.50;;;15.37;80.71
45793;BME280;31495;42.740;22.908;2023-08-08T00:14:48;93007.97;;;15.24;80.76
45793;BME280;31495;42.740;22.908;2023-08-08T00:15:48;93012.72;;;15.28;81.40
45793;BME280;31495;42.740;22.908;2023-08-08T00:16:47;93020.91;;;15.36;81.10
45793;BME280;31495;42.740;22.908;2023-08-08T00:17:47;93017.75;;;15.34;81.26
45793;BME280;31495;42.740;22.908;2023-08-08T00:18:46;93019.56;;;15.34;81.61
45793;BME280;31495;42.740;22.908;2023-08-08T00:19:46;93008.47;;;15.21;81.28
45793;BME280;31495;42.740;22.908;2023-08-08T00:20:45;93024.31;;;15.37;81.45
45793;BME280;31495;42.740;22.908;2023-08-08T00:21:45;93013.75;;;15.27;81.11
45793;BME280;31495;42.740;22.908;2023-08-08T00:22:44;92990.97;;;15.17;80.39
45793;BME280;31495;42.740;22.908;2023-08-08T00:23:44;93022.25;;;15.39;79.91
45793;BME280;31495;42.740;22.908;2023-08-08T00:24:43;93024.31;;;15.37;80.05
45793;BME280;31495;42.740;22.908;2023-08-08T00:25:42;93021.31;;;15.28;79.85
45793;BME280;31495;42.740;22.908;2023-08-08T00:26:42;93003.75;;;15.18;80.03
45793;BME280;31495;42.740;22.908;2023-08-08T00:27:41;92995.78;;;15.08;79.30
45793;BME280;31495;42.740;22.908;2023-08-08T00:28:41;93024.72;;;15.29;78.59
45793;BME280;31495;42.740;22.908;2023-08-08T00:29:41;93021.25;;;15.23;77.75
45793;BME280;31495;42.740;22.908;2023-08-08T00:30:40;93024.59;;;15.18;78.13
45793;BME280;31495;42.740;22.908;2023-08-08T00:31:39;93016.09;;;15.06;78.73
45793;BME280;31495;42.740;22.908;2023-08-08T00:32:39;93006.06;;;14.98;78.48
45793;BME280;31495;42.740;22.908;2023-08-08T00:33:39;92996.78;;;14.85;78.44
45793;BME280;31495;42.740;22.908;2023-08-08T00:34:38;93036.69;;;15.07;78.29
45793;BME280;31495;42.740;22.908;2023-08-08T00:35:38;93032.19;;;15.03;78.31
45793;BME280;31495;42.740;22.908;2023-08-08T00:36:37;93029.59;;;15.03;77.88
45793;BME280;31495;42.740;22.908;2023-08-08T00:37:36;93029.34;;;15.04;77.85
45793;BME280;31495;42.740;22.908;2023-08-08T00:38:36;93001.44;;;14.83;77.80
45793;BME280;31495;42.740;22.908;2023-08-08T00:39:35;93034.81;;;15.03;78.09
45793;BME280;31495;42.740;22.908;2023-08-08T00:40:35;93042.69;;;15.08;78.64
45793;BME280;31495;42.740;22.908;2023-08-08T00:41:34;93036.16;;;15.05;79.10
45793;BME280;31495;42.740;22.908;2023-08-08T00:42:34;92995.28;;;14.72;77.99
45793;BME280;31495;42.740;22.908;2023-08-08T00:43:33;93039.88;;;14.93;77.12
45793;BME280;31495;42.740;22.908;2023-08-08T00:44:33;93039.88;;;14.93;77.40
45793;BME280;31495;42.740;22.908;2023-08-08T00:45:32;93029.63;;;14.86;77.18
45793;BME280;31495;42.740;22.908;2023-08-08T00:46:31;93003.03;;;14.67;78.05
45793;BME280;31495;42.740;22.908;2023-08-08T00:47:31;93033.53;;;14.88;77.61
45793;BME280;31495;42.740;22.908;2023-08-08T00:48:32;93043.97;;;14.88;78.40
45793;BME280;31495;42.740;22.908;2023-08-08T00:49:32;93047.78;;;14.81;78.34
45793;BME280;31495;42.740;22.908;2023-08-08T00:50:31;92987.25;;;14.40;77.55
45793;BME280;31495;42.740;22.908;2023-08-08T00:51:31;93030.81;;;14.61;78.47
45793;BME280;31495;42.740;22.908;2023-08-08T00:52:31;93040.13;;;14.74;78.04
45793;BME280;31495;42.740;22.908;2023-08-08T00:53:31;93016.19;;;14.60;78.43
45793;BME280;31495;42.740;22.908;2023-08-08T00:54:30;92964.75;;;14.33;78.70
45793;BME280;31495;42.740;22.908;2023-08-08T00:55:31;93002.72;;;14.63;79.84
45793;BME280;31495;42.740;22.908;2023-08-08T00:56:31;93023.59;;;14.85;79.63
45793;BME280;31495;42.740;22.908;2023-08-08T00:57:31;93036.72;;;14.91;79.73
45793;BME280;31495;42.740;22.908;2023-08-08T00:58:31;93034.91;;;14.91;79.51
45793;BME280;31495;42.740;22.908;2023-08-08T00:59:31;93036.50;;;14.92;79.78
45793;BME280;31495;42.740;22.908;2023-08-08T01:00:31;93043.66;;;14.85;80.36
45793;BME280;31495;42.740;22.908;2023-08-08T01:01:30;93039.72;;;14.82;78.97
45793;BME280;31495;42.740;22.908;2023-08-08T01:02:30;93044.44;;;14.85;78.89
45793;BME280;31495;42.740;22.908;2023-08-08T01:03:29;92998.53;;;14.62;78.70
45793;BME280;31495;42.740;22.908;2023-08-08T01:04:28;93009.50;;;14.64;76.91
45793;BME280;31495;42.740;22.908;2023-08-08T01:05:35;93045.72;;;14.83;78.02
45793;BME280;31495;42.740;22.908;2023-08-08T01:07:08;93044.59;;;14.79;78.26
45793;BME280;31495;42.740;22.908;2023-08-08T01:08:15;93044.84;;;14.77;78.35
45793;BME280;31495;42.740;22.908;2023-08-08T01:09:30;93001.34;;;14.44;79.16
45793;BME280;31495;42.740;22.908;2023-08-08T01:10:40;93042.00;;;14.79;79.25
45793;BME280;31495;42.740;22.908;2023-08-08T01:11:41;93020.28;;;14.56;79.27
45793;BME280;31495;42.740;22.908;2023-08-08T01:12:45;93032.59;;;14.61;78.42
45793;BME280;31495;42.740;22.908;2023-08-08T01:13:45;93025.72;;;14.55;78.51
45793;BME280;31495;42.740;22.908;2023-08-08T01:14:46;93035.44;;;14.59;80.10
45793;BME280;31495;42.740;22.908;2023-08-08T01:15:46;93024.06;;;14.48;78.75
45793;BME280;31495;42.740;22.908;2023-08-08T01:16:47;93020.34;;;14.44;78.35
45793;BME280;31495;42.740;22.908;2023-08-08T01:17:47;93024.84;;;14.49;79.13
45793;BME280;31495;42.740;22.908;2023-08-08T01:18:47;93055.63;;;14.52;77.74
45793;BME280;31495;42.740;22.908;2023-08-08T01:19:47;93045.81;;;14.42;78.23
45793;BME280;31495;42.740;22.908;2023-08-08T01:20:47;93023.19;;;14.26;79.45
45793;BME280;31495;42.740;22.908;2023-08-08T01:21:48;93031.22;;;14.24;79.80
45793;BME280;31495;42.740;22.908;2023-08-08T01:25:17;93061.91;;;14.39;80.07
45793;BME280;31495;42.740;22.908;2023-08-08T01:26:17;93041.44;;;14.14;79.15
45793;BME280;31495;42.740;22.908;2023-08-08T01:27:18;93064.63;;;14.15;78.39
45793;BME280;31495;42.740;22.908;2023-08-08T01:28:23;93058.66;;;14.15;79.87
45793;BME280;31495;42.740;22.908;2023-08-08T01:29:23;93066.56;;;14.08;79.95
45793;BME280;31495;42.740;22.908;2023-08-08T01:30:23;93044.81;;;13.97;79.55
45793;BME280;31495;42.740;22.908;2023-08-08T01:31:22;93037.69;;;13.93;80.06
45793;BME280;31495;42.740;22.908;2023-08-08T01:32:22;93066.78;;;14.19;80.08
45793;BME280;31495;42.740;22.908;2023-08-08T01:33:21;93061.38;;;14.08;79.42
45793;BME280;31495;42.740;22.908;2023-08-08T01:34:21;93067.75;;;14.01;79.71
45793;BME280;31495;42.740;22.908;2023-08-08T01:35:21;93068.13;;;13.92;79.44
45793;BME280;31495;42.740;22.908;2023-08-08T01:36:30;93070.25;;;13.95;80.69
45793;BME280;31495;42.740;22.908;2023-08-08T01:37:41;93072.63;;;13.97;82.09
45793;BME280;31495;42.740;22.908;2023-08-08T01:38:44;93071.13;;;14.01;81.83
45793;BME280;31495;42.740;22.908;2023-08-08T01:39:48;93070.50;;;13.94;81.22
45793;BME280;31495;42.740;22.908;2023-08-08T01:40:49;93072.66;;;13.85;80.91
45793;BME280;31495;42.740;22.908;2023-08-08T01:41:52;93072.22;;;13.76;81.03
45793;BME280;31495;42.740;22.908;2023-08-08T01:42:53;93064.66;;;13.75;81.92
45793;BME280;31495;42.740;22.908;2023-08-08T01:43:54;93070.22;;;13.67;82.22
45793;BME280;31495;42.740;22.908;2023-08-08T01:44:55;93057.25;;;13.55;81.72
45793;BME280;31495;42.740;22.908;2023-08-08T01:45:55;93052.97;;;13.49;82.16
45793;BME280;31495;42.740;22.908;2023-08-08T01:46:55;93055.53;;;13.60;82.65
45793;BME280;31495;42.740;22.908;2023-08-08T01:47:55;93053.97;;;13.59;83.62
45793;BME280;31495;42.740;22.908;2023-08-08T01:48:57;93055.03;;;13.75;83.59
45793;BME280;31495;42.740;22.908;2023-08-08T01:49:57;93060.81;;;13.77;82.77
45793;BME280;31495;42.740;22.908;2023-08-08T01:50:57;93066.16;;;13.71;82.80
45793;BME280;31495;42.740;22.908;2023-08-08T01:51:56;93060.19;;;13.58;82.17
45793;BME280;31495;42.740;22.908;2023-08-08T01:52:55;93067.06;;;13.65;83.03
45793;BME280;31495;42.740;22.908;2023-08-08T01:53:55;93070.59;;;13.58;82.33
45793;BME280;31495;42.740;22.908;2023-08-08T01:54:55;93030.84;;;13.34;82.15
45793;BME280;31495;42.740;22.908;2023-08-08T01:55:55;93055.25;;;13.45;82.23
45793;BME280;31495;42.740;22.908;2023-08-08T01:56:54;93075.56;;;13.60;82.15
45793;BME280;31495;42.740;22.908;2023-08-08T01:57:54;93051.72;;;13.51;82.61
45793;BME280;31495;42.740;22.908;2023-08-08T01:58:53;93060.97;;;13.59;82.49
45793;BME280;31495;42.740;22.908;2023-08-08T01:59:53;93090.13;;;13.73;82.64
45793;BME280;31495;42.740;22.908;2023-08-08T02:00:52;93087.84;;;13.76;82.06
45793;BME280;31495;42.740;22.908;2023-08-08T02:01:52;93076.66;;;13.76;82.07
45793;BME280;31495;42.740;22.908;2023-08-08T02:02:51;93075.28;;;13.73;81.47
45793;BME280;31495;42.740;22.908;2023-08-08T02:03:50;93079.25;;;13.76;81.58
45793;BME280;31495;42.740;22.908;2023-08-08T02:04:50;93079.56;;;13.79;81.80
45793;BME280;31495;42.740;22.908;2023-08-08T02:05:50;93077.63;;;13.87;81.63
45793;BME280;31495;42.740;22.908;2023-08-08T02:06:49;93069.03;;;13.86;81.40
45793;BME280;31495;42.740;22.908;2023-08-08T02:07:48;93045.22;;;13.66;80.95
45793;BME280;31495;42.740;22.908;2023-08-08T02:08:48;93066.81;;;13.78;81.41
45793;BME280;31495;42.740;22.908;2023-08-08T02:09:47;93069.50;;;13.83;80.68
45793;BME280;31495;42.740;22.908;2023-08-08T02:10:49;93070.41;;;13.89;80.96
45793;BME280;31495;42.740;22.908;2023-08-08T02:11:49;93074.44;;;13.96;80.05
45793;BME280;31495;42.740;22.908;2023-08-08T02:12:49;93074.28;;;14.03;80.00
45793;BME280;31495;42.740;22.908;2023-08-08T02:13:48;93061.19;;;13.98;81.32
45793;BME280;31495;42.740;22.908;2023-08-08T02:14:47;93055.22;;;13.97;80.94
45793;BME280;31495;42.740;22.908;2023-08-08T02:15:47;93073.38;;;14.09;81.42
45793;BME280;31495;42.740;22.908;2023-08-08T02:16:47;93057.25;;;13.95;81.98
45793;BME280;31495;42.740;22.908;2023-08-08T02:17:46;93034.91;;;13.83;81.81
45793;BME280;31495;42.740;22.908;2023-08-08T02:18:46;93062.31;;;14.02;81.71
45793;BME280;31495;42.740;22.908;2023-08-08T02:19:45;93058.13;;;14.01;81.99
45793;BME280;31495;42.740;22.908;2023-08-08T02:20:45;93051.81;;;13.97;82.07
45793;BME280;31495;42.740;22.908;2023-08-08T02:21:44;93068.31;;;14.03;82.38
45793;BME280;31495;42.740;22.908;2023-08-08T02:22:44;93046.28;;;13.93;82.46
45793;BME280;31495;42.740;22.908;2023-08-08T02:23:43;93046.38;;;13.98;82.48
45793;BME280;31495;42.740;22.908;2023-08-08T02:24:42;93068.47;;;14.13;82.56
45793;BME280;31495;42.740;22.908;2023-08-08T02:25:42;93076.16;;;14.20;82.37
45793;BME280;31495;42.740;22.908;2023-08-08T02:26:41;93074.13;;;14.22;82.25
45793;BME280;31495;42.740;22.908;2023-08-08T02:27:41;93081.25;;;14.14;80.44
45793;BME280;31495;42.740;22.908;2023-08-08T02:28:40;93065.78;;;14.08;80.40
45793;BME280;31495;42.740;22.908;2023-08-08T02:29:40;93061.50;;;14.13;80.58
45793;BME280;31495;42.740;22.908;2023-08-08T02:30:40;93081.44;;;14.25;79.93
45793;BME280;31495;42.740;22.908;2023-08-08T02:31:40;93085.38;;;14.10;80.18
45793;BME280;31495;42.740;22.908;2023-08-08T02:32:40;93079.50;;;14.03;80.21
45793;BME280;31495;42.740;22.908;2023-08-08T02:33:39;93079.31;;;13.93;80.14
45793;BME280;31495;42.740;22.908;2023-08-08T02:34:39;93099.34;;;13.92;81.00
45793;BME280;31495;42.740;22.908;2023-08-08T02:35:38;93105.31;;;13.93;81.14
45793;BME280;31495;42.740;22.908;2023-08-08T02:36:37;93086.13;;;13.82;81.12
45793;BME280;31495;42.740;22.908;2023-08-08T02:37:37;93093.13;;;13.82;81.52
45793;BME280;31495;42.740;22.908;2023-08-08T02:38:36;93105.78;;;13.90;81.71
45793;BME280;31495;42.740;22.908;2023-08-08T02:39:36;93103.84;;;13.85;81.80
45793;BME280;31495;42.740;22.908;2023-08-08T02:40:35;93081.75;;;13.59;82.24
45793;BME280;31495;42.740;22.908;2023-08-08T02:41:35;93094.63;;;13.66;82.16
45793;BME280;31495;42.740;22.908;2023-08-08T02:42:34;93076.59;;;13.47;82.88
45793;BME280;31495;42.740;22.908;2023-08-08T02:43:34;93087.91;;;13.53;82.81
45793;BME280;31495;42.740;22.908;2023-08-08T02:44:33;93088.69;;;13.53;82.58
45793;BME280;31495;42.740;22.908;2023-08-08T02:45:33;93114.84;;;13.75;82.13
45793;BME280;31495;42.740;22.908;2023-08-08T02:46:32;93110.47;;;13.64;82.18
45793;BME280;31495;42.740;22.908;2023-08-08T02:47:32;93108.47;;;13.54;82.75
45793;BME280;31495;42.740;22.908;2023-08-08T02:48:31;93099.44;;;13.33;83.03
45793;BME280;31495;42.740;22.908;2023-08-08T02:49:31;93125.28;;;13.52;83.30
45793;BME280;31495;42.740;22.908;2023-08-08T02:50:32;93106.88;;;13.53;82.53
45793;BME280;31495;42.740;22.908;2023-08-08T02:51:32;93123.34;;;13.59;82.62
45793;BME280;31495;42.740;22.908;2023-08-08T02:52:31;93120.53;;;13.49;82.01
45793;BME280;31495;42.740;22.908;2023-08-08T02:53:31;93112.53;;;13.50;81.84
45793;BME280;31495;42.740;22.908;2023-08-08T02:54:30;93124.06;;;13.54;82.29
45793;BME280;31495;42.740;22.908;2023-08-08T02:55:30;93113.53;;;13.49;82.23
45793;BME280;31495;42.740;22.908;2023-08-08T02:56:29;93126.41;;;13.56;82.09
45793;BME280;31495;42.740;22.908;2023-08-08T02:57:29;93115.00;;;13.57;82.18
45793;BME280;31495;42.740;22.908;2023-08-08T02:58:28;93129.59;;;13.58;81.69
45793;BME280;31495;42.740;22.908;2023-08-08T02:59:27;93122.91;;;13.62;81.81
45793;BME280;31495;42.740;22.908;2023-08-08T03:00:28;93130.25;;;13.65;82.00
45793;BME280;31495;42.740;22.908;2023-08-08T03:01:27;93093.66;;;13.43;81.29
45793;BME280;31495;42.740;22.908;2023-08-08T03:02:27;93101.47;;;13.43;81.85
45793;BME280;31495;42.740;22.908;2023-08-08T03:03:26;93128.56;;;13.59;81.64
45793;BME280;31495;42.740;22.908;2023-08-08T03:04:25;93138.72;;;13.60;81.03
45793;BME280;31495;42.740;22.908;2023-08-08T03:05:24;93128.00;;;13.57;81.55
45793;BME280;31495;42.740;22.908;2023-08-08T03:06:25;93106.63;;;13.31;82.16
45793;BME280;31495;42.740;22.908;2023-08-08T03:07:24;93125.31;;;13.40;81.97
45793;BME280;31495;42.740;22.908;2023-08-08T03:08:23;93134.44;;;13.42;82.59
45793;BME280;31495;42.740;22.908;2023-08-08T03:09:23;93135.59;;;13.47;82.24
45793;BME280;31495;42.740;22.908;2023-08-08T03:10:23;93112.84;;;13.30;82.40
45793;BME280;31495;42.740;22.908;2023-08-08T03:11:23;93084.03;;;13.08;81.99
45793;BME280;31495;42.740;22.908;2023-08-08T03:12:22;93119.94;;;13.23;82.62
45793;BME280;31495;42.740;22.908;2023-08-08T03:13:22;93127.41;;;13.31;82.91
45793;BME280;31495;42.740;22.908;2023-08-08T03:14:22;93139.09;;;13.40;82.94
45793;BME280;31495;42.740;22.908;2023-08-08T03:15:21;93139.31;;;13.39;82.68
45793;BME280;31495;42.740;22.908;2023-08-08T03:16:20;93130.16;;;13.36;82.47
45793;BME280;31495;42.740;22.908;2023-08-08T03:17:20;93129.34;;;13.36;82.92
45793;BME280;31495;42.740;22.908;2023-08-08T03:18:20;93113.63;;;13.31;82.99
45793;BME280;31495;42.740;22.908;2023-08-08T03:19:21;93112.53;;;13.27;83.15
45793;BME280;31495;42.740;22.908;2023-08-08T03:20:21;93120.78;;;13.35;83.42
45793;BME280;31495;42.740;22.908;2023-08-08T03:21:20;93113.84;;;13.29;82.66
45793;BME280;31495;42.740;22.908;2023-08-08T03:22:20;93131.94;;;13.48;83.05
45793;BME280;31495;42.740;22.908;2023-08-08T03:23:19;93130.59;;;13.45;83.87
45793;BME280;31495;42.740;22.908;2023-08-08T03:24:18;93109.09;;;13.26;83.59
45793;BME280;31495;42.740;22.908;2023-08-08T03:25:18;93096.94;;;13.27;83.26
45793;BME280;31495;42.740;22.908;2023-08-08T03:26:17;93117.72;;;13.50;82.41
45793;BME280;31495;42.740;22.908;2023-08-08T03:27:17;93130.25;;;13.53;81.62
45793;BME280;31495;42.740;22.908;2023-08-08T03:28:16;93137.94;;;13.60;80.94
45793;BME280;31495;42.740;22.908;2023-08-08T03:29:15;93114.59;;;13.36;79.97
45793;BME280;31495;42.740;22.908;2023-08-08T03:30:15;93106.19;;;13.34;79.66
45793;BME280;31495;42.740;22.908;2023-08-08T03:31:15;93135.56;;;13.58;80.13
45793;BME280;31495;42.740;22.908;2023-08-08T03:32:16;93120.88;;;13.52;80.09
45793;BME280;31495;42.740;22.908;2023-08-08T03:33:16;93128.34;;;13.49;80.29
45793;BME280;31495;42.740;22.908;2023-08-08T03:34:15;93108.91;;;13.39;78.94
45793;BME280;31495;42.740;22.908;2023-08-08T03:35:15;93148.44;;;13.65;78.83
45793;BME280;31495;42.740;22.908;2023-08-08T03:36:14;93143.38;;;13.58;78.82
45793;BME280;31495;42.740;22.908;2023-08-08T03:37:13;93131.03;;;13.54;78.68
45793;BME280;31495;42.740;22.908;2023-08-08T03:38:13;93141.00;;;13.57;78.32
45793;BME280;31495;42.740;22.908;2023-08-08T03:39:13;93120.88;;;13.40;78.49
45793;BME280;31495;42.740;22.908;2023-08-08T03:40:12;93145.19;;;13.58;78.14
45793;BME280;31495;42.740;22.908;2023-08-08T03:41:14;93146.19;;;13.57;79.05
45793;BME280;31495;42.740;22.908;2023-08-08T03:42:13;93126.41;;;13.44;78.50
45793;BME280;31495;42.740;22.908;2023-08-08T03:43:13;93148.13;;;13.50;78.20
45793;BME280;31495;42.740;22.908;2023-08-08T03:44:12;93115.56;;;13.23;79.07
45793;BME280;31495;42.740;22.908;2023-08-08T03:45:11;93150.84;;;13.55;78.77
45793;BME280;31495;42.740;22.908;2023-08-08T03:46:11;93169.69;;;13.62;78.44
45793;BME280;31495;42.740;22.908;2023-08-08T03:47:11;93141.56;;;13.47;78.64
45793;BME280;31495;42.740;22.908;2023-08-08T03:48:10;93174.47;;;13.53;78.18
45793;BME280;31495;42.740;22.908;2023-08-08T03:49:10;93157.38;;;13.46;78.65
45793;BME280;31495;42.740;22.908;2023-08-08T03:50:09;93144.47;;;13.27;78.36
45793;BME280;31495;42.740;22.908;2023-08-08T03:51:09;93179.53;;;13.48;78.91
45793;BME280;31495;42.740;22.908;2023-08-08T03:52:09;93177.50;;;13.50;79.57
45793;BME280;31495;42.740;22.908;2023-08-08T03:53:08;93148.41;;;13.30;78.43
45793;BME280;31495;42.740;22.908;2023-08-08T03:54:07;93134.09;;;13.27;78.87
45793;BME280;31495;42.740;22.908;2023-08-08T03:55:07;93139.84;;;13.29;78.72
45793;BME280;31495;42.740;22.908;2023-08-08T03:56:07;93172.19;;;13.33;79.27
45793;BME280;31495;42.740;22.908;2023-08-08T03:57:06;93125.25;;;13.04;79.17
45793;BME280;31495;42.740;22.908;2023-08-08T03:58:06;93158.03;;;13.29;79.25
45793;BME280;31495;42.740;22.908;2023-08-08T03:59:05;93172.53;;;13.37;78.86
45793;BME280;31495;42.740;22.908;2023-08-08T04:00:05;93176.94;;;13.48;78.68
45793;BME280;31495;42.740;22.908;2023-08-08T04:01:07;93178.19;;;13.46;78.64
45793;BME280;31495;42.740;22.908;2023-08-08T04:02:06;93154.19;;;13.32;78.73
45793;BME280;31495;42.740;22.908;2023-08-08T04:03:06;93177.06;;;13.41;77.85
45793;BME280;31495;42.740;22.908;2023-08-08T04:04:06;93120.88;;;13.17;77.78
45793;BME280;31495;42.740;22.908;2023-08-08T04:05:05;93170.47;;;13.51;78.20
45793;BME280;31495;42.740;22.908;2023-08-08T04:06:05;93172.63;;;13.54;78.23
45793;BME280;31495;42.740;22.908;2023-08-08T04:07:05;93154.44;;;13.54;78.59
45793;BME280;31495;42.740;22.908;2023-08-08T04:08:04;93129.25;;;13.42;79.06
45793;BME280;31495;42.740;22.908;2023-08-08T04:09:04;93174.53;;;13.70;79.29
45793;BME280;31495;42.740;22.908;2023-08-08T04:10:04;93161.66;;;13.75;79.51
45793;BME280;31495;42.740;22.908;2023-08-08T04:11:03;93174.88;;;13.86;79.69
45793;BME280;31495;42.740;22.908;2023-08-08T04:12:03;93135.00;;;13.68;79.67
45793;BME280;31495;42.740;22.908;2023-08-08T04:13:02;93159.16;;;13.81;79.15
45793;BME280;31495;42.740;22.908;2023-08-08T04:14:02;93170.00;;;13.89;78.15
45793;BME280;31495;42.740;22.908;2023-08-08T04:15:02;93150.00;;;13.78;79.10
45793;BME280;31495;42.740;22.908;2023-08-08T04:16:02;93164.13;;;13.94;79.78
45793;BME280;31495;42.740;22.908;2023-08-08T04:17:02;93167.84;;;13.98;79.91
45793;BME280;31495;42.740;22.908;2023-08-08T04:18:02;93156.31;;;13.94;79.56
45793;BME280;31495;42.740;22.908;2023-08-08T04:19:02;93159.59;;;14.01;79.36
45793;BME280;31495;42.740;22.908;2023-08-08T04:20:03;93168.53;;;14.05;77.34
45793;BME280;31495;42.740;22.908;2023-08-08T04:21:04;93152.31;;;14.03;78.59
45793;BME280;31495;42.740;22.908;2023-08-08T04:22:04;93157.16;;;14.11;78.64
45793;BME280;31495;42.740;22.908;2023-08-08T04:23:04;93165.28;;;14.27;78.51
45793;BME280;31495;42.740;22.908;2023-08-08T04:24:03;93147.44;;;14.19;78.57
45793;BME280;31495;42.740;22.908;2023-08-08T04:25:04;93173.59;;;14.41;78.32
45793;BME280;31495;42.740;22.908;2023-08-08T04:26:04;93159.56;;;14.42;76.63
45793;BME280;31495;42.740;22.908;2023-08-08T04:27:03;93158.44;;;14.38;76.45
45793;BME280;31495;42.740;22.908;2023-08-08T04:28:03;93166.56;;;14.53;76.17
45793;BME280;31495;42.740;22.908;2023-08-08T04:29:03;93142.13;;;14.42;76.32
45793;BME280;31495;42.740;22.908;2023-08-08T04:30:03;93170.16;;;14.64;76.36
45793;BME280;31495;42.740;22.908;2023-08-08T04:31:03;93181.78;;;14.73;76.52
45793;BME280;31495;42.740;22.908;2023-08-08T04:32:03;93183.44;;;14.79;74.58
45793;BME280;31495;42.740;22.908;2023-08-08T04:33:03;93169.13;;;14.65;73.96
45793;BME280;31495;42.740;22.908;2023-08-08T04:34:03;93177.34;;;14.74;74.20
45793;BME280;31495;42.740;22.908;2023-08-08T04:35:02;93178.84;;;14.69;72.22
45793;BME280;31495;42.740;22.908;2023-08-08T04:36:02;93191.41;;;14.73;72.44
45793;BME280;31495;42.740;22.908;2023-08-08T04:37:01;93192.28;;;14.78;72.41
45793;BME280;31495;42.740;22.908;2023-08-08T04:38:01;93202.53;;;14.68;71.19
45793;BME280;31495;42.740;22.908;2023-08-08T04:39:00;93195.88;;;14.48;69.83
45793;BME280;31495;42.740;22.908;2023-08-08T04:40:00;93212.28;;;14.49;70.91
45793;BME280;31495;42.740;22.908;2023-08-08T04:40:59;93220.47;;;14.41;71.65
45793;BME280;31495;42.740;22.908;2023-08-08T04:41:59;93230.81;;;14.24;71.94
45793;BME280;31495;42.740;22.908;2023-08-08T04:42:59;93220.53;;;14.17;72.53
45793;BME280;31495;42.740;22.908;2023-08-08T04:43:59;93228.09;;;14.19;73.82
45793;BME280;31495;42.740;22.908;2023-08-08T04:44:58;93234.53;;;14.16;74.39
45793;BME280;31495;42.740;22.908;2023-08-08T04:45:58;93222.66;;;14.08;75.36
45793;BME280;31495;42.740;22.908;2023-08-08T04:46:57;93205.97;;;13.81;75.56
45793;BME280;31495;42.740;22.908;2023-08-08T04:47:56;93217.63;;;13.90;76.08
45793;BME280;31495;42.740;22.908;2023-08-08T04:48:57;93234.47;;;13.99;76.19
45793;BME280;31495;42.740;22.908;2023-08-08T04:49:56;93207.34;;;13.71;76.15
45793;BME280;31495;42.740;22.908;2023-08-08T04:50:56;93224.41;;;13.91;76.35
45793;BME280;31495;42.740;22.908;2023-08-08T04:51:55;93225.19;;;13.91;76.38
45793;BME280;31495;42.740;22.908;2023-08-08T04:52:55;93206.09;;;13.86;77.42
45793;BME280;31495;42.740;22.908;2023-08-08T04:53:54;93220.09;;;13.85;76.16
45793;BME280;31495;42.740;22.908;2023-08-08T04:54:53;93211.16;;;13.81;77.33
45793;BME280;31495;42.740;22.908;2023-08-08T04:55:53;93189.25;;;13.65;77.56
45793;BME280;31495;42.740;22.908;2023-08-08T04:56:52;93188.69;;;13.74;78.64
45793;BME280;31495;42.740;22.908;2023-08-08T04:57:52;93198.94;;;13.93;79.72
45793;BME280;31495;42.740;22.908;2023-08-08T04:58:51;93186.41;;;13.90;79.75
45793;BME280;31495;42.740;22.908;2023-08-08T04:59:51;93201.00;;;13.91;80.09
45793;BME280;31495;42.740;22.908;2023-08-08T05:00:50;93189.56;;;13.80;81.00
45793;BME280;31495;42.740;22.908;2023-08-08T05:01:50;93193.78;;;13.81;80.98
45793;BME280;31495;42.740;22.908;2023-08-08T05:02:49;93167.78;;;13.46;79.71
45793;BME280;31495;42.740;22.908;2023-08-08T05:03:49;93225.19;;;13.79;80.11
45793;BME280;31495;42.740;22.908;2023-08-08T05:04:49;93199.78;;;13.58;80.69
45793;BME280;31495;42.740;22.908;2023-08-08T05:05:49;93228.81;;;13.78;81.17
45793;BME280;31495;42.740;22.908;2023-08-08T05:06:48;93231.31;;;13.73;80.95
45793;BME280;31495;42.740;22.908;2023-08-08T05:07:48;93223.16;;;13.58;81.52
45793;BME280;31495;42.740;22.908;2023-08-08T05:08:49;93233.78;;;13.68;82.48
45793;BME280;31495;42.740;22.908;2023-08-08T05:09:49;93236.72;;;13.72;80.96
45793;BME280;31495;42.740;22.908;2023-08-08T05:10:49;93247.78;;;13.67;81.02
45793;BME280;31495;42.740;22.908;2023-08-08T05:11:48;93248.25;;;13.64;81.24
45793;BME280;31495;42.740;22.908;2023-08-08T05:12:48;93252.53;;;13.47;80.70
45793;BME280;31495;42.740;22.908;2023-08-08T05:13:47;93248.78;;;13.42;81.66
45793;BME280;31495;42.740;22.908;2023-08-08T05:14:47;93257.75;;;13.47;82.22
45793;BME280;31495;42.740;22.908;2023-08-08T05:15:46;93259.19;;;13.42;81.24
45793;BME280;31495;42.740;22.908;2023-08-08T05:16:45;93259.19;;;13.42;81.09